Time;durP1;ratioP1;P1;durP2;ratioP2;P2;SDS_P1;SDS_P2;PMS_P1;PMS_P2;Temp;Humidity;BMP_temperature;BMP_pressure;BME280_temperature;BME280_humidity;BME280_pressure;Samples;Min_cycle;Max_cycle;Signal;HPM_P1;HPM_P2
2022/02/11 00:01:08;;;;;;;187.02;87.57;;;;;;;-0.50;100.00;93801.63;5050703;28;20067;-81
2022/02/11 00:06:36;;;;;;;175.98;86.75;;;;;;;-0.56;100.00;93819.78;5050567;28;20187;-81
2022/02/11 00:09:03;;;;;;;153.38;78.55;;;;;;;-0.52;100.00;93833.75;5050503;28;20040;-80
2022/02/11 00:11:33;;;;;;;159.38;82.30;;;;;;;-0.78;100.00;93790.47;5050925;28;20041;-81
2022/02/11 00:14:00;;;;;;;126.32;69.15;;;;;;;-0.64;100.00;93827.19;5050326;28;20041;-81
2022/02/11 00:16:27;;;;;;;129.30;67.68;;;;;;;-0.71;100.00;93825.19;5050585;28;20041;-80
2022/02/11 00:18:58;;;;;;;134.10;74.68;;;;;;;-0.77;100.00;93822.34;5050404;28;20550;-80
2022/02/11 00:21:25;;;;;;;135.70;72.90;;;;;;;-1.02;100.00;93786.50;5050778;28;20040;-80
2022/02/11 00:23:51;;;;;;;145.15;75.45;;;;;;;-0.82;100.00;93835.34;5047820;28;20049;-81
2022/02/11 00:26:18;;;;;;;126.18;72.82;;;;;;;-1.02;100.00;93834.44;5048341;28;20428;-80
2022/02/11 00:34:25;;;;;;;108.70;58.42;;;;;;;-1.02;100.00;93835.22;5050318;28;20047;-80
2022/02/11 00:37:01;;;;;;;118.97;63.55;;;;;;;-1.20;100.00;93807.25;5050376;28;20053;-80
2022/02/11 01:04:24;;;;;;;162.23;83.53;;;;;;;-0.80;100.00;93805.72;5078242;28;20096;-80
2022/02/11 01:06:50;;;;;;;136.25;63.78;;;;;;;-0.91;100.00;93781.41;5086240;28;20048;-79
2022/02/11 01:09:18;;;;;;;124.18;59.63;;;;;;;-0.76;100.00;93813.84;5086403;28;20082;-79
2022/02/11 01:11:49;;;;;;;102.32;52.67;;;;;;;-0.65;100.00;93808.72;5086430;28;20040;-79
2022/02/11 01:14:17;;;;;;;129.93;60.85;;;;;;;-0.53;100.00;93794.31;5083578;28;20052;-79
2022/02/11 01:16:48;;;;;;;119.03;56.55;;;;;;;-0.49;100.00;93795.66;5085988;28;20063;-79
2022/02/11 01:19:23;;;;;;;115.03;56.58;;;;;;;-0.39;100.00;93797.41;5083344;28;20075;-79
2022/02/11 01:21:58;;;;;;;112.73;53.87;;;;;;;-0.35;100.00;93801.28;5086023;28;20083;-78
2022/02/11 01:24:47;;;;;;;111.85;51.63;;;;;;;-0.45;100.00;93797.00;5077679;28;20043;-78
2022/02/11 01:27:25;;;;;;;102.65;48.15;;;;;;;-1.02;100.00;93759.56;5076653;28;20089;-78
2022/02/11 01:32:44;;;;;;;110.50;53.53;;;;;;;-0.87;100.00;93785.28;5076350;28;20403;-79
2022/02/11 01:35:19;;;;;;;155.73;71.03;;;;;;;-0.90;100.00;93795.59;5076475;28;20048;-80
2022/02/11 01:37:55;;;;;;;110.75;55.90;;;;;;;-0.84;100.00;93782.47;5076358;28;20138;-80
2022/02/11 01:51:26;;;;;;;107.18;52.53;;;;;;;-1.21;100.00;93782.94;5044162;28;20087;-79
2022/02/11 01:54:02;;;;;;;109.78;56.13;;;;;;;-1.21;100.00;93780.41;5065469;28;20044;-78
2022/02/11 01:56:42;;;;;;;;;;;;;;;-1.24;100.00;93780.69;5066229;28;20090;-78
2022/02/11 02:11:25;;;;;;;116.60;60.13;;;;;;;-2.02;100.00;93781.66;5009755;28;20068;-77
2022/02/11 02:14:20;;;;;;;109.63;57.00;;;;;;;-2.23;100.00;93776.56;5009680;28;20038;-78
2022/02/11 02:25:17;;;;;;;111.97;55.20;;;;;;;-2.71;100.00;93750.78;5042578;28;20056;-78
2022/02/11 02:28:01;;;;;;;106.35;56.40;;;;;;;-2.58;100.00;93774.06;5051543;28;20539;-78
2022/02/11 02:33:54;;;;;;;125.65;64.38;;;;;;;-2.69;100.00;93777.41;5009600;28;20132;-78
2022/02/11 02:36:42;;;;;;;108.97;56.22;;;;;;;-2.67;100.00;93782.31;5050558;28;20049;-78
2022/02/11 02:39:31;;;;;;;97.93;51.83;;;;;;;-2.70;100.00;93780.84;5052335;28;20172;-78
2022/02/11 02:50:49;;;;;;;98.10;54.80;;;;;;;-2.44;100.00;93784.84;5009142;28;20446;-78
2022/02/11 02:58:59;;;;;;;71.50;42.63;;;;;;;-2.42;100.00;93788.84;5051187;28;20095;-78
2022/02/11 03:01:38;;;;;;;73.18;42.13;;;;;;;-2.38;100.00;93769.28;5051188;28;20041;-78
2022/02/11 03:31:34;;;;;;;85.22;45.42;;;;;;;-2.10;100.00;93791.50;5049380;28;20396;-78
2022/02/11 03:34:53;;;;;;;;;;;;;;;-2.30;100.00;93814.75;5050838;28;20059;-79
2022/02/11 03:48:56;;;;;;;93.07;46.95;;;;;;;-2.45;100.00;93813.44;5050147;28;20511;-79
2022/02/11 04:22:21;;;;;;;101.63;50.40;;;;;;;-2.60;100.00;93792.75;5049775;28;20048;-80
2022/02/11 04:55:04;;;;;;;65.07;30.25;;;;;;;-1.73;100.00;93801.28;5049125;28;20060;-80
2022/02/11 05:00:17;;;;;;;106.40;47.78;;;;;;;-2.11;100.00;93810.88;5049136;28;20048;-80
2022/02/11 05:02:46;;;;;;;249.95;103.60;;;;;;;-2.09;100.00;93808.25;5048844;28;20472;-80
2022/02/11 05:05:14;;;;;;;422.63;200.95;;;;;;;-2.18;100.00;93804.72;5049285;28;20045;-80
2022/02/11 05:07:41;;;;;;;107.57;51.58;;;;;;;-2.34;100.00;93805.88;5049126;28;20439;-80
2022/02/11 05:10:12;;;;;;;142.80;71.30;;;;;;;-2.60;100.00;93785.97;5048975;28;20045;-80
2022/02/11 05:12:41;;;;;;;312.48;139.13;;;;;;;-2.62;100.00;93797.06;5049310;28;20778;-81
2022/02/11 05:15:09;;;;;;;216.13;100.40;;;;;;;-2.59;100.00;93797.63;5049167;28;20041;-81
2022/02/11 05:17:37;;;;;;;103.05;49.00;;;;;;;-2.58;100.00;93791.69;5048898;28;20492;-81
2022/02/11 05:20:05;;;;;;;93.88;47.22;;;;;;;-2.53;100.00;93795.56;5048994;28;20067;-81
2022/02/11 05:22:32;;;;;;;134.30;65.38;;;;;;;-2.55;100.00;93800.72;5048713;28;20052;-81
2022/02/11 05:24:59;;;;;;;90.75;45.20;;;;;;;-2.58;100.00;93793.41;5048878;28;20041;-81
2022/02/11 05:27:27;;;;;;;196.18;96.43;;;;;;;-2.75;100.00;93789.63;5049048;28;20040;-81
2022/02/11 05:29:54;;;;;;;166.98;78.30;;;;;;;-2.50;100.00;93801.16;5048749;28;20049;-81
2022/02/11 05:32:21;;;;;;;148.43;77.35;;;;;;;-2.56;100.00;93768.94;5048838;28;20049;-82
2022/02/11 05:34:48;;;;;;;135.48;70.15;;;;;;;-2.30;100.00;93802.19;5048552;28;20048;-81
2022/02/11 05:37:15;;;;;;;117.90;63.88;;;;;;;-2.34;100.00;93790.78;5048706;28;20041;-81
2022/02/11 05:39:42;;;;;;;121.85;62.78;;;;;;;-2.47;100.00;93770.75;5048785;28;20098;-82
2022/02/11 05:42:09;;;;;;;116.70;60.45;;;;;;;-2.28;100.00;93812.94;5051507;28;20044;-82
2022/02/11 05:44:37;;;;;;;253.23;113.15;;;;;;;-2.39;100.00;93810.44;5052666;28;20053;-82
2022/02/11 05:47:05;;;;;;;143.23;78.25;;;;;;;-2.68;100.00;93815.94;5052489;28;20045;-82
2022/02/11 05:49:32;;;;;;;123.47;60.50;;;;;;;-2.87;100.00;93803.94;5052632;28;20114;-81
2022/02/11 05:51:58;;;;;;;119.78;64.15;;;;;;;-3.27;100.00;93768.22;5052487;28;20041;-82
2022/02/11 05:54:25;;;;;;;100.22;52.20;;;;;;;-3.14;100.00;93817.59;5052187;28;20049;-81
2022/02/11 05:56:52;;;;;;;100.60;54.45;;;;;;;-3.34;100.00;93824.81;5052542;28;20049;-82
2022/02/11 05:59:19;;;;;;;112.07;62.53;;;;;;;-3.37;100.00;93832.59;5052844;28;20037;-82
2022/02/11 06:01:47;;;;;;;101.63;53.50;;;;;;;-3.42;100.00;93834.63;5052525;28;20049;-83
2022/02/11 06:04:14;;;;;;;104.93;50.03;;;;;;;-3.65;100.00;93810.22;5052302;28;20041;-82
2022/02/11 06:06:41;;;;;;;110.72;58.10;;;;;;;-3.46;100.00;93838.25;5052203;28;20045;-83
2022/02/11 06:09:08;;;;;;;113.93;61.38;;;;;;;-3.45;100.00;93838.16;5052307;28;20049;-83
2022/02/11 06:11:35;;;;;;;91.28;50.60;;;;;;;-3.46;100.00;93835.75;5051974;28;20083;-83
2022/02/11 06:14:01;;;;;;;95.50;52.97;;;;;;;-3.68;100.00;93787.84;5051983;28;20056;-83
2022/02/11 06:16:28;;;;;;;107.47;58.95;;;;;;;-3.31;100.00;93828.84;5051946;28;20045;-83
2022/02/11 06:18:56;;;;;;;100.68;56.50;;;;;;;-3.14;100.00;93841.00;5051925;28;20420;-83
2022/02/11 06:21:23;;;;;;;99.13;53.45;;;;;;;-3.16;100.00;93817.69;5051670;28;20041;-83
2022/02/11 06:23:55;;;;;;;92.00;53.20;;;;;;;-2.85;100.00;93847.34;5051602;28;20041;-83
2022/02/11 06:26:23;;;;;;;86.97;51.85;;;;;;;-2.79;100.00;93836.84;5051595;28;20119;-82
2022/02/11 06:28:50;;;;;;;95.50;55.28;;;;;;;-2.64;100.00;93841.66;5051671;28;20542;-82
2022/02/11 06:31:17;;;;;;;86.10;51.38;;;;;;;-2.64;100.00;93824.84;5051573;28;20132;-81
2022/02/11 06:33:44;;;;;;;87.47;52.25;;;;;;;-2.31;100.00;93850.13;5051701;28;20072;-81
2022/02/11 06:36:12;;;;;;;90.93;49.80;;;;;;;-2.11;100.00;93843.59;5065805;28;20563;-81
2022/02/11 06:38:39;;;;;;;81.90;49.15;;;;;;;-1.96;100.00;93841.63;5069810;28;20074;-81
2022/02/11 06:41:06;;;;;;;78.05;48.08;;;;;;;-1.86;100.00;93840.94;5071427;28;20060;-81
2022/02/11 06:43:35;;;;;;;72.75;44.67;;;;;;;-1.69;100.00;93850.50;5071410;28;20047;-82
2022/02/11 06:46:02;;;;;;;76.53;47.97;;;;;;;-1.64;100.00;93850.94;5071509;28;20055;-81
2022/02/11 06:48:29;;;;;;;84.97;47.00;;;;;;;-1.60;100.00;93846.47;5071607;28;20044;-81
2022/02/11 06:50:57;;;;;;;77.45;47.58;;;;;;;-1.58;100.00;93853.91;5071329;28;20052;-81
2022/02/11 06:53:25;;;;;;;94.10;52.97;;;;;;;-1.52;100.00;93851.69;5070861;28;20056;-81
2022/02/11 06:55:52;;;;;;;89.38;52.38;;;;;;;-1.33;100.00;93854.50;5071193;28;20048;-81
2022/02/11 06:58:21;;;;;;;109.70;58.50;;;;;;;-1.28;100.00;93842.34;5071255;28;20048;-82
2022/02/11 07:00:50;;;;;;;101.53;60.97;;;;;;;-1.15;100.00;93849.72;5071013;28;20045;-81
2022/02/11 07:03:19;;;;;;;110.32;61.15;;;;;;;-1.15;100.00;93817.72;5071272;28;20044;-83
2022/02/11 07:05:46;;;;;;;87.65;51.42;;;;;;;-0.81;100.00;93847.03;5071195;28;20127;-82
2022/02/11 07:08:13;;;;;;;83.50;50.00;;;;;;;-0.68;100.00;93850.13;5071158;28;21213;-82
2022/02/11 07:10:41;;;;;;;69.25;43.75;;;;;;;-0.65;100.00;93835.69;5070665;28;20052;-83
2022/02/11 07:13:13;;;;;;;72.25;42.42;;;;;;;-0.41;100.00;93843.75;5070754;28;20036;-83
2022/02/11 07:15:41;;;;;;;83.90;46.10;;;;;;;-0.25;100.00;93836.63;5070883;28;20052;-83
2022/02/11 07:18:08;;;;;;;90.95;50.45;;;;;;;-0.19;100.00;93836.16;5070842;28;20419;-83
2022/02/11 07:20:35;;;;;;;99.85;52.20;;;;;;;-0.18;100.00;93841.06;5070600;28;20444;-83
2022/02/11 07:23:02;;;;;;;80.55;46.85;;;;;;;-0.07;100.00;93832.59;5070511;28;20135;-83
2022/02/11 07:25:29;;;;;;;78.70;45.95;;;;;;;-0.06;100.00;93808.13;5070107;28;20040;-83
2022/02/11 07:27:57;;;;;;;77.88;47.40;;;;;;;-0.16;100.00;93780.31;5070431;28;20036;-83
2022/02/11 07:30:24;;;;;;;69.63;41.65;;;;;;;0.24;100.00;93819.09;5070405;28;20045;-83
2022/02/11 07:32:52;;;;;;;58.00;34.15;;;;;;;0.07;100.00;93775.03;5070616;28;20430;-83
2022/02/11 07:35:19;;;;;;;71.80;40.28;;;;;;;0.48;100.00;93815.38;5053237;28;20166;-83
2022/02/11 07:37:46;;;;;;;63.05;37.20;;;;;;;0.66;100.00;93820.59;5070398;28;20040;-83
2022/02/11 07:40:14;;;;;;;51.35;34.17;;;;;;;0.75;100.00;93822.28;5070053;28;20044;-83
2022/02/11 07:42:41;;;;;;;55.70;33.38;;;;;;;0.93;100.00;93824.16;5070247;28;20403;-84
2022/02/11 07:45:11;;;;;;;61.55;35.83;;;;;;;1.10;100.00;93827.72;5069904;28;20049;-84
2022/02/11 07:47:38;;;;;;;62.45;36.45;;;;;;;0.75;100.00;93756.53;5070308;28;20044;-84
2022/02/11 07:50:06;;;;;;;61.28;37.60;;;;;;;1.29;100.00;93804.09;5069954;28;20044;-84
2022/02/11 07:52:33;;;;;;;64.78;38.70;;;;;;;1.29;100.00;93780.53;5069815;28;20472;-84
2022/02/11 07:55:00;;;;;;;67.15;41.95;;;;;;;1.39;100.00;93763.56;5069738;28;20519;-84
2022/02/11 07:57:28;;;;;;;69.82;40.28;;;;;;;1.51;100.00;93764.19;5069614;28;20055;-84
2022/02/11 07:59:54;;;;;;;57.72;34.88;;;;;;;1.92;100.00;93799.31;5069459;28;20083;-84
2022/02/11 08:02:23;;;;;;;58.17;34.80;;;;;;;2.19;100.00;93817.19;5069579;28;20040;-83
2022/02/11 08:04:50;;;;;;;56.03;33.15;;;;;;;2.22;100.00;93797.41;5069483;28;20041;-82
2022/02/11 08:07:17;;;;;;;46.40;24.70;;;;;;;2.22;100.00;93827.03;5070235;28;20404;-82
2022/02/11 08:09:44;;;;;;;51.80;27.20;;;;;;;2.21;100.00;93821.16;5069840;28;20048;-81
2022/02/11 08:12:12;;;;;;;39.50;22.98;;;;;;;1.84;100.00;93782.28;5070378;28;20369;-81
2022/02/11 08:14:38;;;;;;;51.60;28.00;;;;;;;2.19;100.00;93817.19;5070353;28;20048;-81
2022/02/11 08:17:05;;;;;;;51.72;26.08;;;;;;;1.87;100.00;93768.53;5070029;28;20049;-82
2022/02/11 08:19:33;;;;;;;51.65;27.40;;;;;;;2.24;100.00;93810.75;5069908;28;20071;-82
2022/02/11 08:22:00;;;;;;;59.70;32.97;;;;;;;2.37;100.00;93814.66;5069409;28;20098;-82
2022/02/11 08:24:27;;;;;;;58.15;29.50;;;;;;;2.28;100.00;93798.59;5069714;28;20396;-83
2022/02/11 08:26:54;;;;;;;65.88;36.85;;;;;;;2.34;100.00;93803.06;5069377;28;20093;-83
2022/02/11 08:29:25;;;;;;;57.45;28.52;;;;;;;2.33;100.00;93798.94;5069613;28;20381;-83
2022/02/11 08:31:54;;;;;;;48.13;28.15;;;;;;;1.98;100.00;93758.22;5069924;28;20394;-83
2022/02/11 08:34:22;;;;;;;52.70;28.98;;;;;;;2.39;100.00;93810.25;5069647;28;20045;-83
2022/02/11 08:36:50;;;;;;;44.30;25.35;;;;;;;2.46;100.00;93788.41;5069613;28;20125;-83
2022/02/11 08:39:18;;;;;;;58.47;32.97;;;;;;;2.64;100.00;93806.19;5069599;28;20048;-83
2022/02/11 08:41:45;;;;;;;57.28;34.20;;;;;;;2.60;100.00;93789.66;5069442;28;20047;-83
2022/02/11 08:44:12;;;;;;;57.65;32.75;;;;;;;2.96;100.00;93791.34;5069077;28;20090;-82
2022/02/11 08:46:39;;;;;;;61.88;32.08;;;;;;;3.10;100.00;93784.16;5062864;28;20044;-82
2022/02/11 08:49:06;;;;;;;58.30;32.55;;;;;;;3.25;100.00;93792.81;5060002;28;20064;-82
2022/02/11 08:51:33;;;;;;;68.68;31.83;;;;;;;3.45;100.00;93770.53;5059166;28;20036;-82
2022/02/11 08:54:01;;;;;;;67.20;32.42;;;;;;;3.64;100.00;93757.75;5057917;28;20052;-81
2022/02/11 08:56:29;;;;;;;101.75;38.53;;;;;;;3.96;100.00;93784.22;5049027;28;20041;-81
2022/02/11 08:58:57;;;;;;;94.32;37.50;;;;;;;3.93;100.00;93782.00;5048931;28;20045;-80
2022/02/11 09:01:24;;;;;;;86.18;32.67;;;;;;;4.05;100.00;93788.38;5046427;28;20554;-80
2022/02/11 09:03:50;;;;;;;89.18;33.25;;;;;;;4.05;100.00;93778.22;5047823;28;20049;-80
2022/02/11 09:06:18;;;;;;;87.28;33.42;;;;;;;4.09;100.00;93786.31;5048905;28;20041;-80
2022/02/11 09:08:45;;;;;;;82.53;35.10;;;;;;;4.19;100.00;93779.38;5048858;28;20041;-80
2022/02/11 09:11:19;;;;;;;85.00;33.05;;;;;;;4.26;100.00;93772.69;5048898;28;20044;-79
2022/02/11 09:13:46;;;;;;;78.93;31.80;;;;;;;4.39;100.00;93777.31;5049468;28;20041;-79
2022/02/11 09:16:13;;;;;;;89.85;32.83;;;;;;;4.58;100.00;93770.34;5049853;28;20048;-79
2022/02/11 09:18:40;;;;;;;91.43;30.55;;;;;;;4.82;100.00;93768.75;5052813;28;20060;-79
2022/02/11 09:21:07;;;;;;;82.00;29.25;;;;;;;4.94;100.00;93767.47;5052850;28;20077;-80
2022/02/11 09:23:34;;;;;;;67.00;24.75;;;;;;;4.89;100.00;93763.81;5052706;28;20037;-80
2022/02/11 09:26:01;;;;;;;65.63;23.35;;;;;;;5.11;100.00;93771.75;5052645;28;20053;-80
2022/02/11 09:28:30;;;;;;;67.13;23.15;;;;;;;5.10;100.00;93749.78;5052793;28;20052;-79
2022/02/11 09:30:57;;;;;;;74.28;25.02;;;;;;;5.32;100.00;93766.91;5052688;28;20095;-79
2022/02/11 09:33:23;;;;;;;63.60;20.83;;;;;;;5.26;99.56;93743.84;5052521;28;20485;-80
2022/02/11 09:35:51;;;;;;;58.10;22.30;;;;;;;5.42;100.00;93743.81;5052565;28;20045;-80
2022/02/11 09:38:19;;;;;;;53.08;20.83;;;;;;;5.75;100.00;93763.28;5054231;28;20480;-80
2022/02/11 09:40:50;;;;;;;56.17;20.77;;;;;;;5.69;98.95;93738.47;5052736;28;20067;-80
2022/02/11 09:43:18;;;;;;;67.15;18.55;;;;;;;6.09;99.60;93769.84;5052242;28;20091;-81
2022/02/11 09:45:46;;;;;;;53.42;15.68;;;;;;;6.27;95.38;93759.41;5052859;28;20041;-80
2022/02/11 09:48:13;;;;;;;43.83;16.33;;;;;;;6.24;97.83;93751.25;5052660;28;20087;-81
2022/02/11 09:50:41;;;;;;;50.83;15.38;;;;;;;6.28;100.00;93706.59;5052201;28;20045;-81
2022/02/11 09:53:08;;;;;;;43.88;16.88;;;;;;;6.77;94.89;93753.91;5052365;28;20052;-81
2022/02/11 09:55:36;;;;;;;35.00;14.25;;;;;;;6.93;97.24;93739.41;5052687;28;20102;-82
2022/02/11 09:58:05;;;;;;;29.25;13.10;;;;;;;7.01;92.54;93725.78;5052297;28;20080;-82
2022/02/11 10:00:34;;;;;;;28.42;12.50;;;;;;;7.14;89.04;93717.53;5052455;28;20040;-82
2022/02/11 10:03:04;;;;;;;27.05;12.57;;;;;;;7.42;90.27;93725.38;5052352;28;20056;-82
2022/02/11 10:05:33;;;;;;;30.42;13.27;;;;;;;7.58;94.25;93721.81;5052436;28;20135;-82
2022/02/11 10:08:02;;;;;;;33.20;12.98;;;;;;;7.43;90.60;93686.06;5051896;28;20056;-82
2022/02/11 10:10:52;;;;;;;24.92;10.57;;;;;;;7.83;86.53;93726.63;5052143;28;20516;-82
2022/02/11 10:13:22;;;;;;;28.02;11.50;;;;;;;8.02;84.97;93719.38;5052125;28;20439;-82
2022/02/11 10:15:54;;;;;;;26.08;12.07;;;;;;;8.07;82.98;93716.25;5052708;28;20072;-82
2022/02/11 10:18:27;;;;;;;33.08;12.68;;;;;;;8.13;85.57;93711.22;5051819;28;20555;-83
2022/02/11 10:20:57;;;;;;;34.40;13.38;;;;;;;8.22;84.23;93705.97;5051885;28;20041;-82
2022/02/11 10:23:26;;;;;;;35.22;12.00;;;;;;;8.03;84.34;93667.22;5059734;28;20041;-83
2022/02/11 10:26:00;;;;;;;48.50;13.68;;;;;;;8.48;84.10;93697.72;5070292;28;20049;-82
2022/02/11 10:28:35;;;;;;;44.60;13.23;;;;;;;8.45;83.28;93671.72;5071372;28;20408;-83
2022/02/11 10:31:07;;;;;;;49.30;13.27;;;;;;;8.72;84.02;93687.31;5071825;28;20670;-83
2022/02/11 10:33:56;;;;;;;36.00;11.80;;;;;;;8.75;88.30;93638.28;5071807;28;20052;-83
2022/02/11 10:36:25;;;;;;;42.65;11.00;;;;;;;9.25;83.13;93680.94;5071384;28;20060;-83
2022/02/11 10:39:05;;;;;;;40.20;10.48;;;;;;;9.45;84.97;93673.34;5071404;28;20510;-83
2022/02/11 10:41:33;;;;;;;36.92;9.20;;;;;;;9.52;81.18;93651.09;5071681;28;20052;-83
2022/02/11 10:44:05;;;;;;;34.42;9.95;;;;;;;9.73;80.00;93657.84;5071412;28;20075;-83
2022/02/11 10:46:34;;;;;;;41.88;10.23;;;;;;;9.93;81.06;93661.47;5071188;28;20048;-83
2022/02/11 10:49:02;;;;;;;35.00;9.18;;;;;;;9.73;79.49;93610.91;5071438;28;20411;-83
2022/02/11 10:51:30;;;;;;;30.33;9.32;;;;;;;10.18;79.54;93658.34;5071107;28;20044;-83
2022/02/11 10:53:56;;;;;;;35.33;9.43;;;;;;;9.76;75.60;93602.81;5070886;28;20040;-83
2022/02/11 10:56:26;;;;;;;25.40;8.15;;;;;;;9.85;76.59;93611.09;5071149;28;20044;-83
2022/02/11 10:58:56;;;;;;;22.60;9.32;;;;;;;10.16;82.15;93617.47;5071424;28;20044;-83
2022/02/11 11:01:23;;;;;;;22.17;8.55;;;;;;;10.19;73.93;93636.81;5071090;28;20404;-82
2022/02/11 11:03:50;;;;;;;28.80;8.20;;;;;;;10.27;73.05;93623.78;5071194;28;20052;-83
2022/02/11 11:06:19;;;;;;;27.08;8.90;;;;;;;10.35;75.40;93615.09;5070817;28;20040;-84
2022/02/11 11:08:48;;;;;;;25.13;8.95;;;;;;;10.43;74.81;93625.22;5070723;28;20541;-84
2022/02/11 11:11:18;;;;;;;20.40;8.23;;;;;;;10.53;72.94;93635.88;5071186;28;20444;-84
2022/02/11 11:13:48;;;;;;;16.90;6.25;;;;;;;10.49;71.36;93636.47;5070821;28;20131;-84
2022/02/11 11:16:18;;;;;;;23.83;7.15;;;;;;;10.59;69.60;93624.00;5071001;28;20055;-84
2022/02/11 11:18:45;;;;;;;18.10;7.50;;;;;;;10.45;70.01;93614.75;5071058;28;20051;-84
2022/02/11 11:21:14;;;;;;;22.33;7.30;;;;;;;10.47;70.40;93618.69;5071101;28;20044;-84
2022/02/11 11:23:53;;;;;;;24.20;7.20;;;;;;;10.36;70.77;93578.97;5070369;28;20123;-83
2022/02/11 11:26:21;;;;;;;19.48;7.75;;;;;;;10.60;73.81;93573.44;5067524;28;20037;-84
2022/02/11 11:28:49;;;;;;;29.80;6.45;;;;;;;10.75;74.83;93568.88;5069191;28;20099;-83
2022/02/11 11:31:22;;;;;;;20.70;7.55;;;;;;;11.08;76.91;93577.47;5069966;28;20063;-82
2022/02/11 11:33:51;;;;;;;18.88;5.80;;;;;;;11.21;66.72;93585.13;5070460;28;20123;-82
2022/02/11 11:36:18;;;;;;;15.38;7.03;;;;;;;10.73;65.21;93498.88;5070634;28;20041;-83
2022/02/11 11:38:57;;;;;;;20.52;7.95;;;;;;;11.19;63.43;93534.88;5069740;28;20048;-82
2022/02/11 11:41:25;;;;;;;19.65;7.25;;;;;;;11.59;63.65;93575.06;5070240;28;20048;-82
2022/02/11 11:43:55;;;;;;;22.35;7.05;;;;;;;11.44;61.63;93552.97;5060764;28;20045;-83
2022/02/11 11:46:33;;;;;;;15.38;5.95;;;;;;;11.58;67.72;93537.47;5050130;28;20056;-82
2022/02/11 11:49:03;;;;;;;15.55;6.40;;;;;;;11.39;60.95;93498.78;5049934;28;20466;-83
2022/02/11 11:51:32;;;;;;;17.98;7.45;;;;;;;11.80;58.46;93560.28;5050707;28;20049;-83
2022/02/11 11:54:26;;;;;;;17.20;5.80;;;;;;;12.00;67.13;93547.28;5050301;28;20052;-82
2022/02/11 11:56:57;;;;;;;11.40;5.25;;;;;;;11.81;58.58;93513.75;5050344;28;20148;-83
2022/02/11 11:59:28;;;;;;;14.13;5.10;;;;;;;11.96;60.91;93512.66;5050097;28;20071;-83
2022/02/11 12:01:58;;;;;;;12.25;5.13;;;;;;;12.23;55.13;93533.84;5049939;28;20405;-83
2022/02/11 12:04:26;;;;;;;14.30;6.45;;;;;;;12.38;61.41;93522.44;5049673;28;20048;-83
2022/02/11 12:06:59;;;;;;;12.43;5.97;;;;;;;12.19;55.53;93501.00;5050112;28;20052;-83
2022/02/11 12:09:29;;;;;;;19.02;5.80;;;;;;;12.09;57.27;93473.16;5050082;28;20049;-82
2022/02/11 12:12:01;;;;;;;20.60;5.90;;;;;;;12.00;59.30;93462.31;5050606;28;20049;-82
2022/02/11 12:14:30;;;;;;;20.38;5.93;;;;;;;12.20;64.39;93500.00;5067552;28;20522;-83
2022/02/11 12:16:58;;;;;;;17.83;5.68;;;;;;;12.46;62.70;93509.28;5069092;28;20048;-82
2022/02/11 12:19:26;;;;;;;17.35;5.82;;;;;;;12.51;56.39;93524.84;5054230;28;20048;-83
2022/02/11 12:21:54;;;;;;;13.32;5.60;;;;;;;12.62;60.40;93518.22;5049711;28;20049;-83
2022/02/11 12:27:24;;;;;;;28.08;6.63;;;;;;;12.28;55.61;93477.31;5049806;28;20051;-83
2022/02/11 12:29:53;;;;;;;22.45;6.50;;;;;;;12.48;56.19;93491.81;5050781;28;20045;-82
2022/02/11 12:32:21;;;;;;;21.05;7.72;;;;;;;12.21;55.97;93452.66;5069485;28;20055;-82
2022/02/11 12:34:50;;;;;;;25.27;7.85;;;;;;;12.52;56.24;93481.84;5069542;28;20047;-82
2022/02/11 12:37:18;;;;;;;31.75;16.15;;;;;;;12.61;59.08;93493.47;5069408;28;20485;-82
2022/02/11 12:39:45;;;;;;;25.02;8.30;;;;;;;12.54;56.98;93472.13;5069368;28;20047;-82
2022/02/11 12:42:17;;;;;;;23.27;6.25;;;;;;;12.68;56.55;93501.91;5062788;28;20055;-83
2022/02/11 12:44:45;;;;;;;17.88;7.07;;;;;;;12.53;55.69;93460.22;5067255;28;20139;-83
2022/02/11 12:47:12;;;;;;;16.70;5.88;;;;;;;12.48;55.54;93458.31;5070074;28;20052;-82
2022/02/11 12:49:45;;;;;;;18.60;7.45;;;;;;;12.46;61.80;93413.16;5069697;28;20083;-83
2022/02/11 12:52:18;;;;;;;18.08;6.20;;;;;;;12.97;54.78;93493.66;5070028;28;20391;-83
2022/02/11 12:55:01;;;;;;;24.20;7.75;;;;;;;13.02;52.99;93486.06;5069475;28;20056;-83
2022/02/11 12:57:30;;;;;;;18.40;6.93;;;;;;;12.31;57.23;93367.94;5068481;28;20468;-83
2022/02/11 12:59:57;;;;;;;23.45;6.35;;;;;;;13.18;53.41;93474.34;5067092;28;20048;-82
2022/02/11 13:02:26;;;;;;;18.88;7.40;;;;;;;13.31;52.52;93482.91;5067513;28;20053;-83
2022/02/11 13:05:11;;;;;;;36.25;13.25;;;;;;;13.24;55.65;93459.75;5068279;28;20051;-80
2022/02/11 13:07:39;;;;;;;21.55;5.97;;;;;;;13.15;51.66;93461.09;5050646;28;20439;-82
2022/02/11 13:10:08;;;;;;;16.17;7.05;;;;;;;13.29;51.83;93479.75;5049247;28;20503;-82
2022/02/11 13:12:42;;;;;;;20.17;6.97;;;;;;;13.35;52.09;93479.69;5053118;28;20127;-82
2022/02/11 13:15:12;;;;;;;17.88;6.18;;;;;;;13.39;56.75;93472.28;5069075;28;20056;-82
2022/02/11 13:17:41;;;;;;;17.30;6.70;;;;;;;13.30;51.12;93453.75;5069565;28;20044;-82
2022/02/11 13:20:11;;;;;;;15.88;5.93;;;;;;;13.49;52.58;93470.00;5069578;28;20044;-82
2022/02/11 13:22:39;;;;;;;22.20;7.57;;;;;;;13.44;53.08;93462.09;5069322;28;20059;-81
2022/02/11 13:25:07;;;;;;;17.08;6.28;;;;;;;13.44;58.59;93464.66;5069519;28;20056;-83
2022/02/11 13:27:43;;;;;;;33.92;11.90;;;;;;;13.55;51.09;93467.50;5069626;28;20048;-83
2022/02/11 13:30:12;;;;;;;44.45;15.43;;;;;;;13.58;53.73;93459.31;5069487;28;20052;-84
2022/02/11 13:32:40;;;;;;;33.13;10.00;;;;;;;13.46;57.76;93438.63;5069415;28;20052;-83
2022/02/11 13:35:10;;;;;;;35.58;12.43;;;;;;;13.48;53.90;93442.59;5069548;28;20045;-84
2022/02/11 13:37:38;;;;;;;26.65;8.98;;;;;;;13.52;50.39;93480.88;5069608;28;20041;-84
2022/02/11 13:40:16;;;;;;;30.33;8.73;;;;;;;13.59;54.73;93469.44;5069259;28;20510;-83
2022/02/11 13:42:59;;;;;;;26.17;7.20;;;;;;;13.51;55.09;93449.09;5069131;28;20051;-83
2022/02/11 13:45:27;;;;;;;19.80;7.22;;;;;;;13.65;51.13;93465.16;5069225;28;20047;-84
2022/02/11 13:48:00;;;;;;;16.55;6.53;;;;;;;13.36;55.89;93414.16;5069368;28;20044;-84
2022/02/11 13:50:27;;;;;;;22.20;6.65;;;;;;;13.60;54.12;93450.34;5069098;28;20044;-84
2022/02/11 13:53:05;;;;;;;16.42;5.68;;;;;;;13.53;53.39;93464.38;5068777;28;20048;-84
2022/02/11 13:55:32;;;;;;;30.85;7.72;;;;;;;13.30;49.06;93430.53;5063322;28;20052;-84
2022/02/11 13:58:15;;;;;;;17.80;6.18;;;;;;;13.42;52.51;93448.59;5065070;28;20135;-82
2022/02/11 14:00:42;;;;;;;18.58;6.20;;;;;;;13.16;51.39;93429.13;5068827;28;20105;-82
2022/02/11 14:03:20;;;;;;;16.70;5.60;;;;;;;13.36;58.76;93450.28;5071291;28;20053;-83
2022/02/11 14:05:47;;;;;;;19.67;5.93;;;;;;;13.27;50.52;93451.59;5072617;28;20565;-82
2022/02/11 14:08:14;;;;;;;13.10;5.97;;;;;;;13.05;52.47;93418.56;5072627;28;20484;-82
2022/02/11 14:10:43;;;;;;;12.93;5.65;;;;;;;13.15;55.78;93430.16;5072754;28;20055;-82
2022/02/11 14:13:11;;;;;;;16.45;5.93;;;;;;;13.15;52.71;93440.47;5064491;28;20056;-82
2022/02/11 14:15:39;;;;;;;11.40;5.38;;;;;;;13.14;53.77;93436.31;5052793;28;20080;-82
2022/02/11 14:18:06;;;;;;;12.95;6.20;;;;;;;13.20;55.14;93449.09;5061881;28;20123;-81
2022/02/11 14:20:37;;;;;;;12.45;5.72;;;;;;;13.08;54.69;93440.53;5072535;28;20047;-82
2022/02/11 14:23:19;;;;;;;14.70;6.57;;;;;;;12.96;59.92;93433.56;5072232;28;20048;-82
2022/02/11 14:25:46;;;;;;;14.63;7.28;;;;;;;13.07;58.80;93452.66;5072622;28;20496;-82
2022/02/11 14:28:16;;;;;;;12.00;6.40;;;;;;;13.13;52.13;93453.56;5072555;28;20125;-82
2022/02/11 14:30:44;;;;;;;9.77;5.40;;;;;;;12.92;53.47;93437.56;5072310;28;20185;-82
2022/02/11 14:33:12;;;;;;;18.10;6.10;;;;;;;12.78;51.41;93403.44;5072160;28;20048;-83
2022/02/11 14:35:39;;;;;;;10.73;5.28;;;;;;;12.79;49.76;93412.78;5072287;28;20072;-82
2022/02/11 14:38:07;;;;;;;16.27;5.57;;;;;;;13.05;51.11;93452.09;5072336;28;20040;-82
2022/02/11 14:40:34;;;;;;;15.13;6.03;;;;;;;12.98;55.23;93448.81;5072011;28;20098;-81